createdAt,value
2018-02-10T00:01:37.281Z,18.17
2018-02-10T00:04:06.806Z,16.17
2018-02-10T00:06:36.268Z,18.02
2018-02-10T00:09:05.768Z,16.98
2018-02-10T00:11:35.289Z,17.00
2018-02-10T00:14:04.800Z,16.65
2018-02-10T00:16:34.326Z,16.75
2018-02-10T00:19:03.816Z,17.60
2018-02-10T00:21:33.339Z,16.80
2018-02-10T00:24:02.935Z,16.37
2018-02-10T00:26:32.422Z,17.17
2018-02-10T00:29:01.947Z,16.87
2018-02-10T00:31:31.447Z,16.52
2018-02-10T00:34:00.916Z,17.70
2018-02-10T00:36:30.420Z,17.95
2018-02-10T00:38:59.943Z,16.30
2018-02-10T00:41:29.442Z,17.83
2018-02-10T00:43:58.906Z,16.58
2018-02-10T00:46:28.432Z,16.35
2018-02-10T00:48:57.897Z,16.70
2018-02-10T00:51:27.405Z,16.60
2018-02-10T00:53:56.912Z,17.23
2018-02-10T00:56:26.426Z,17.98
2018-02-10T00:58:55.895Z,18.92
2018-02-10T01:01:25.413Z,18.08
2018-02-10T01:03:54.887Z,18.50
2018-02-10T01:06:24.390Z,18.23
2018-02-10T01:08:53.920Z,17.37
2018-02-10T01:11:23.400Z,18.92
2018-02-10T01:13:52.908Z,19.27
2018-02-10T01:16:22.387Z,17.50
2018-02-10T01:18:51.901Z,17.05
2018-02-10T01:21:21.401Z,18.20
2018-02-10T01:23:50.889Z,18.10
2018-02-10T01:26:20.399Z,18.08
2018-02-10T01:28:49.914Z,18.40
2018-02-10T01:31:19.386Z,17.55
2018-02-10T01:33:48.918Z,17.15
2018-02-10T01:36:18.402Z,17.85
2018-02-10T01:38:47.916Z,16.45
2018-02-10T01:41:17.383Z,17.87
2018-02-10T01:43:46.911Z,15.80
2018-02-10T01:46:16.422Z,18.90
2018-02-10T01:48:45.907Z,18.20
2018-02-10T01:51:15.408Z,19.83
2018-02-10T01:53:44.894Z,19.08
2018-02-10T01:56:14.405Z,18.95
2018-02-10T01:58:43.879Z,17.35
2018-02-10T02:01:13.397Z,20.52
2018-02-10T02:03:42.887Z,19.77
2018-02-10T02:06:12.409Z,18.83
2018-02-10T02:08:41.896Z,19.73
2018-02-10T02:11:11.402Z,19.23
2018-02-10T02:13:40.968Z,19.52
2018-02-10T02:16:10.499Z,18.62
2018-02-10T02:18:39.955Z,18.95
2018-02-10T02:21:09.522Z,19.10
2018-02-10T02:23:38.996Z,18.48
2018-02-10T02:26:08.525Z,19.52
2018-02-10T02:28:38.056Z,18.35
2018-02-10T02:31:07.533Z,19.95
2018-02-10T02:33:37.010Z,20.27
2018-02-10T02:36:06.523Z,19.50
2018-02-10T02:38:35.986Z,18.60
2018-02-10T02:41:05.493Z,20.17
2018-02-10T02:43:34.971Z,19.42
2018-02-10T02:46:04.470Z,18.90
2018-02-10T02:48:33.940Z,20.20
2018-02-10T02:51:03.429Z,19.77
2018-02-10T02:53:32.944Z,20.15
2018-02-10T02:56:02.439Z,18.77
2018-02-10T02:58:31.944Z,19.85
2018-02-10T03:01:01.452Z,19.85
2018-02-10T03:03:31.074Z,20.40
2018-02-10T03:06:00.586Z,19.25
2018-02-10T03:08:30.060Z,20.17
2018-02-10T03:10:59.606Z,21.25
2018-02-10T03:13:29.067Z,18.65
2018-02-10T03:15:58.565Z,21.05
2018-02-10T03:18:28.042Z,21.12
2018-02-10T03:20:57.592Z,20.95
2018-02-10T03:23:27.109Z,20.33
2018-02-10T03:25:56.767Z,21.67
2018-02-10T03:28:26.258Z,22.58
2018-02-10T03:30:55.731Z,21.08
2018-02-10T03:33:25.235Z,20.40
2018-02-10T03:35:54.701Z,20.85
2018-02-10T03:38:24.197Z,21.25
2018-02-10T03:40:53.743Z,20.02
2018-02-10T03:43:23.198Z,21.80
2018-02-10T03:45:52.709Z,20.52
2018-02-10T03:48:22.202Z,21.40
2018-02-10T03:50:51.730Z,19.92
2018-02-10T03:53:21.181Z,21.20
2018-02-10T03:55:50.674Z,22.95
2018-02-10T03:58:20.190Z,22.40
2018-02-10T04:00:49.680Z,22.35
2018-02-10T04:03:19.283Z,23.48
2018-02-10T04:05:48.759Z,22.25
2018-02-10T04:08:18.285Z,22.55
2018-02-10T04:10:47.728Z,23.25
2018-02-10T04:13:17.230Z,23.30
2018-02-10T04:15:46.715Z,22.13
2018-02-10T04:18:16.233Z,22.98
2018-02-10T04:20:45.756Z,21.35
2018-02-10T04:23:15.218Z,23.67
2018-02-10T04:25:44.736Z,20.95
2018-02-10T04:28:14.217Z,23.30
2018-02-10T04:30:43.719Z,21.77
2018-02-10T04:33:13.187Z,20.88
2018-02-10T04:35:42.718Z,22.00
2018-02-10T04:38:12.201Z,20.98
2018-02-10T04:40:41.711Z,22.50
2018-02-10T04:43:11.240Z,22.13
2018-02-10T04:45:40.749Z,22.50
2018-02-10T04:48:10.234Z,18.73
2018-02-10T04:50:39.780Z,21.48
2018-02-10T04:53:09.292Z,23.65
2018-02-10T04:55:38.807Z,22.70
2018-02-10T04:58:08.265Z,22.92
2018-02-10T05:00:37.760Z,20.73
2018-02-10T05:03:07.298Z,23.15
2018-02-10T05:05:36.772Z,23.17
2018-02-10T05:08:06.886Z,23.48
2018-02-10T05:10:36.377Z,22.83
2018-02-10T05:13:05.883Z,24.60
2018-02-10T05:15:35.382Z,23.25
2018-02-10T05:18:04.905Z,23.25
2018-02-10T05:20:34.378Z,23.20
2018-02-10T05:23:03.880Z,22.30
2018-02-10T05:25:33.449Z,24.00
2018-02-10T05:28:02.969Z,24.05
2018-02-10T05:30:32.447Z,24.37
2018-02-10T05:33:01.973Z,23.77
2018-02-10T05:35:31.502Z,21.73
2018-02-10T05:38:00.976Z,23.45
2018-02-10T05:40:30.483Z,24.48
2018-02-10T05:42:59.992Z,25.20
2018-02-10T05:45:29.465Z,23.25
2018-02-10T05:47:58.969Z,23.33
2018-02-10T05:50:28.462Z,22.87
2018-02-10T05:52:57.951Z,21.92
2018-02-10T05:55:27.450Z,23.45
2018-02-10T05:57:57.124Z,23.05
2018-02-10T06:00:26.626Z,24.17
2018-02-10T06:02:56.089Z,24.60
2018-02-10T06:05:25.687Z,23.77
2018-02-10T06:07:55.172Z,23.33
2018-02-10T06:10:24.680Z,23.27
2018-02-10T06:12:54.160Z,24.10
2018-02-10T06:15:23.675Z,23.77
2018-02-10T06:17:53.146Z,22.35
2018-02-10T06:20:22.650Z,22.75
2018-02-10T06:22:52.138Z,22.40
2018-02-10T06:25:21.667Z,23.73
2018-02-10T06:27:51.195Z,23.92
2018-02-10T06:30:20.666Z,23.30
2018-02-10T06:32:50.136Z,22.17
2018-02-10T06:35:19.641Z,22.62
2018-02-10T06:37:49.147Z,24.17
2018-02-10T06:40:18.662Z,25.98
2018-02-10T06:42:48.132Z,24.52
2018-02-10T06:45:17.665Z,22.95
2018-02-10T06:47:47.211Z,25.02
2018-02-10T06:50:16.735Z,24.33
2018-02-10T06:52:46.236Z,21.27
2018-02-10T06:55:15.735Z,23.08
2018-02-10T06:57:45.259Z,24.63
2018-02-10T07:00:14.772Z,23.60
2018-02-10T07:02:44.318Z,21.55
2018-02-10T07:05:13.844Z,21.85
2018-02-10T07:07:43.371Z,22.90
2018-02-10T07:10:12.894Z,24.95
2018-02-10T07:12:42.351Z,24.37
2018-02-10T07:15:11.854Z,23.02
2018-02-10T07:17:41.336Z,22.77
2018-02-10T07:20:10.865Z,25.08
2018-02-10T07:22:40.353Z,23.77
2018-02-10T07:25:09.836Z,23.42
2018-02-10T07:27:39.365Z,24.85
2018-02-10T07:30:08.878Z,26.00
2018-02-10T07:32:38.372Z,24.65
2018-02-10T07:35:07.867Z,26.12
2018-02-10T07:37:37.437Z,26.60
2018-02-10T07:40:06.988Z,26.65
2018-02-10T07:42:36.473Z,24.15
2018-02-10T07:45:05.986Z,25.42
2018-02-10T07:47:35.567Z,25.17
2018-02-10T07:50:05.045Z,25.62
2018-02-10T07:52:34.564Z,26.87
2018-02-10T07:55:04.088Z,23.40
2018-02-10T07:57:33.761Z,25.55
2018-02-10T08:00:03.279Z,25.75
2018-02-10T08:02:32.864Z,25.02
2018-02-10T08:05:02.321Z,23.58
2018-02-10T08:07:31.847Z,24.52
2018-02-10T08:10:01.326Z,24.02
2018-02-10T08:12:30.848Z,22.10
2018-02-10T08:15:00.341Z,25.55
2018-02-10T08:17:29.885Z,25.48
2018-02-10T08:19:59.368Z,20.73
2018-02-10T08:22:28.860Z,23.62
2018-02-10T08:24:58.385Z,25.27
2018-02-10T08:27:27.843Z,20.80
2018-02-10T08:29:57.348Z,22.42
2018-02-10T08:32:26.816Z,20.67
2018-02-10T08:34:56.341Z,23.52
2018-02-10T08:37:25.828Z,22.58
2018-02-10T08:39:55.347Z,25.05
2018-02-10T08:42:24.846Z,23.75
2018-02-10T08:44:54.371Z,22.70
2018-02-10T08:47:23.840Z,24.05
2018-02-10T08:49:53.363Z,25.27
2018-02-10T08:52:22.852Z,21.15
2018-02-10T08:54:52.371Z,20.25
2018-02-10T08:57:21.844Z,20.98
2018-02-10T08:59:51.346Z,21.45
2018-02-10T09:02:20.829Z,20.25
2018-02-10T09:04:50.352Z,20.05
2018-02-10T09:07:19.879Z,19.15
2018-02-10T09:09:49.476Z,19.87
2018-02-10T09:12:18.998Z,21.02
2018-02-10T09:14:48.539Z,22.17
2018-02-10T09:17:18.059Z,27.00
2018-02-10T09:19:47.551Z,25.17
2018-02-10T09:22:17.057Z,27.05
2018-02-10T09:24:46.556Z,23.20
2018-02-10T09:27:16.080Z,20.27
2018-02-10T09:29:46.393Z,20.70
2018-02-10T09:32:15.913Z,22.10
2018-02-10T09:34:45.386Z,20.92
2018-02-10T09:37:14.930Z,21.87
2018-02-10T09:39:44.394Z,18.83
2018-02-10T09:42:13.922Z,18.80
2018-02-10T09:44:43.450Z,19.33
2018-02-10T09:47:12.914Z,18.52
2018-02-10T09:49:42.424Z,18.48
2018-02-10T09:52:11.911Z,20.27
2018-02-10T09:54:41.437Z,20.35
2018-02-10T09:57:10.925Z,20.98
2018-02-10T09:59:40.550Z,20.45
2018-02-10T10:02:10.032Z,16.98
2018-02-10T10:04:39.560Z,21.05
2018-02-10T10:07:09.028Z,19.83
2018-02-10T10:09:38.547Z,19.40
2018-02-10T10:12:08.031Z,18.67
2018-02-10T10:14:37.500Z,23.33
2018-02-10T10:17:07.028Z,19.25
2018-02-10T10:19:36.512Z,19.10
2018-02-10T10:22:06.006Z,22.23
2018-02-10T10:24:35.469Z,21.23
2018-02-10T10:27:04.991Z,20.05
2018-02-10T10:29:34.460Z,20.58
2018-02-10T10:32:03.972Z,20.77
2018-02-10T10:34:33.437Z,20.42
2018-02-10T10:37:02.942Z,21.87
2018-02-10T10:39:32.449Z,22.33
2018-02-10T10:42:01.956Z,22.80
2018-02-10T10:44:31.520Z,19.00
2018-02-10T10:47:00.992Z,22.25
2018-02-10T10:49:30.487Z,23.02
2018-02-10T10:52:00.004Z,19.98
2018-02-10T10:54:29.506Z,20.17
2018-02-10T10:56:59.017Z,20.77
2018-02-10T10:59:28.542Z,20.83
2018-02-10T11:01:58.032Z,20.70
2018-02-10T11:04:27.552Z,19.52
2018-02-10T11:06:57.044Z,18.90
2018-02-10T11:09:26.533Z,19.02
2018-02-10T11:11:56.019Z,19.95
2018-02-10T11:14:25.538Z,20.55
2018-02-10T11:16:55.054Z,20.88
2018-02-10T11:19:24.527Z,18.12
2018-02-10T11:21:54.051Z,21.08
2018-02-10T11:24:24.949Z,20.83
2018-02-10T11:26:54.795Z,20.40
2018-02-10T11:29:24.289Z,23.12
2018-02-10T11:31:53.812Z,21.60
2018-02-10T11:34:23.284Z,23.00
2018-02-10T11:36:52.800Z,21.05
2018-02-10T11:39:22.288Z,22.87
2018-02-10T11:41:51.822Z,15.73
2018-02-10T11:44:21.300Z,17.70
2018-02-10T11:46:50.787Z,18.92
2018-02-10T11:49:20.317Z,21.90
2018-02-10T11:51:49.782Z,20.48
2018-02-10T11:54:19.307Z,20.23
2018-02-10T11:56:48.802Z,22.92
2018-02-10T11:59:18.386Z,19.60
2018-02-10T12:01:47.877Z,20.83
2018-02-10T12:04:17.399Z,25.10
2018-02-10T12:06:46.902Z,23.40
2018-02-10T12:09:16.450Z,23.65
2018-02-10T12:11:45.947Z,19.55
2018-02-10T12:14:15.483Z,21.30
2018-02-10T12:16:44.961Z,20.90
2018-02-10T12:19:14.548Z,21.17
2018-02-10T12:21:44.055Z,23.08
2018-02-10T12:24:13.585Z,21.87
2018-02-10T12:26:43.105Z,21.52
2018-02-10T12:29:12.579Z,22.37
2018-02-10T12:31:42.088Z,22.30
2018-02-10T12:34:11.610Z,17.90
2018-02-10T12:36:41.115Z,15.15
2018-02-10T12:39:10.606Z,21.27
2018-02-10T12:41:40.320Z,19.12
2018-02-10T12:44:09.838Z,18.45
2018-02-10T12:46:39.361Z,18.50
2018-02-10T12:49:14.692Z,19.62
2018-02-10T12:51:44.239Z,21.70
2018-02-10T12:54:13.751Z,18.73
2018-02-10T12:56:43.490Z,14.82
2018-02-10T12:59:12.957Z,17.95
2018-02-10T13:01:42.678Z,19.67
2018-02-10T13:04:12.157Z,17.90
2018-02-10T13:06:41.809Z,19.20
2018-02-10T13:09:11.273Z,23.95
2018-02-10T13:11:40.915Z,19.02
2018-02-10T13:14:10.397Z,20.65
2018-02-10T13:16:39.903Z,22.92
2018-02-10T13:19:09.379Z,21.98
2018-02-10T13:21:38.870Z,24.23
2018-02-10T13:24:08.394Z,21.77
2018-02-10T13:26:37.913Z,21.37
2018-02-10T13:29:07.450Z,22.55
2018-02-10T13:31:36.957Z,21.17
2018-02-10T13:34:06.460Z,21.33
2018-02-10T13:36:35.972Z,23.52
2018-02-10T13:39:05.494Z,21.92
2018-02-10T13:41:34.993Z,22.17
2018-02-10T13:44:04.503Z,23.98
2018-02-10T13:46:34.202Z,22.35
2018-02-10T13:49:03.768Z,22.17
2018-02-10T13:51:33.235Z,22.13
2018-02-10T13:54:02.742Z,21.50
2018-02-10T13:56:32.229Z,21.23
2018-02-10T13:59:01.745Z,23.20
2018-02-10T14:01:31.279Z,23.45
2018-02-10T14:04:00.787Z,22.30
2018-02-10T14:06:30.342Z,24.85
2018-02-10T14:08:59.898Z,22.75
2018-02-10T14:11:29.384Z,23.33
2018-02-10T14:13:58.843Z,25.42
2018-02-10T14:16:28.371Z,24.48
2018-02-10T14:18:57.861Z,23.30
2018-02-10T14:21:27.378Z,23.08
2018-02-10T14:23:56.845Z,24.70
2018-02-10T14:26:26.360Z,22.42
2018-02-10T14:28:55.851Z,23.20
2018-02-10T14:31:25.385Z,22.37
2018-02-10T14:33:54.832Z,25.48
2018-02-10T14:36:24.358Z,23.23
2018-02-10T14:38:53.833Z,23.48
2018-02-10T14:41:23.334Z,24.20
2018-02-10T14:43:52.852Z,27.45
2018-02-10T14:46:22.351Z,24.45
2018-02-10T14:48:51.836Z,26.10
2018-02-10T14:51:21.456Z,24.63
2018-02-10T14:53:50.952Z,25.58
2018-02-10T14:56:20.470Z,24.25
2018-02-10T14:58:50.005Z,24.65
2018-02-10T15:01:19.502Z,26.50
2018-02-10T15:03:49.033Z,27.62
2018-02-10T15:06:18.551Z,25.73
2018-02-10T15:08:48.118Z,28.40
2018-02-10T15:11:17.620Z,23.65
2018-02-10T15:13:47.154Z,27.05
2018-02-10T15:16:16.637Z,25.60
2018-02-10T15:18:46.153Z,26.23
2018-02-10T15:21:15.651Z,24.45
2018-02-10T15:23:45.166Z,25.42
2018-02-10T15:26:14.721Z,24.27
2018-02-10T15:28:44.252Z,25.33
2018-02-10T15:31:19.885Z,25.83
2018-02-10T15:33:55.196Z,26.62
2018-02-10T15:36:24.717Z,24.40
2018-02-10T15:38:54.204Z,23.27
2018-02-10T15:41:23.709Z,25.88
2018-02-10T15:43:53.196Z,25.35
2018-02-10T15:46:22.725Z,25.73
2018-02-10T15:48:52.254Z,25.75
2018-02-10T15:51:21.799Z,23.55
2018-02-10T15:53:51.292Z,24.98
2018-02-10T15:56:20.798Z,24.83
2018-02-10T15:58:50.290Z,25.98
2018-02-10T16:01:19.829Z,24.40
2018-02-10T16:03:49.350Z,25.77
2018-02-10T16:06:18.812Z,26.55
2018-02-10T16:08:48.323Z,25.55
2018-02-10T16:11:17.942Z,26.17
2018-02-10T16:13:47.449Z,24.77
2018-02-10T16:16:16.963Z,23.25
2018-02-10T16:18:46.498Z,23.40
2018-02-10T16:21:16.008Z,24.67
2018-02-10T16:23:45.484Z,25.80
2018-02-10T16:26:14.986Z,25.80
2018-02-10T16:28:44.494Z,27.05
2018-02-10T16:31:14.011Z,24.20
2018-02-10T16:33:43.488Z,26.65
2018-02-10T16:36:12.987Z,25.40
2018-02-10T16:38:42.471Z,24.77
2018-02-10T16:41:11.993Z,23.60
2018-02-10T16:43:41.460Z,22.00
2018-02-10T16:46:10.986Z,23.08
2018-02-10T16:48:40.500Z,26.00
2018-02-10T16:51:09.971Z,26.52
2018-02-10T16:53:39.515Z,23.00
2018-02-10T16:56:08.971Z,24.73
2018-02-10T16:58:38.488Z,25.52
2018-02-10T17:01:07.974Z,25.58
2018-02-10T17:03:37.512Z,22.67
2018-02-10T17:06:06.988Z,23.42
2018-02-10T17:08:36.495Z,22.70
2018-02-10T17:11:05.973Z,22.65
2018-02-10T17:13:35.479Z,20.77
2018-02-10T17:16:05.000Z,21.10
2018-02-10T17:18:34.469Z,20.80
2018-02-10T17:21:04.059Z,20.73
2018-02-10T17:23:33.539Z,21.87
2018-02-10T17:26:03.140Z,20.27
2018-02-10T17:28:32.629Z,22.48
2018-02-10T17:31:02.159Z,21.17
2018-02-10T17:33:31.701Z,19.12
2018-02-10T17:36:01.192Z,21.25
2018-02-10T17:38:30.740Z,20.23
2018-02-10T17:41:00.292Z,17.40
2018-02-10T17:43:29.820Z,19.67
2018-02-10T17:45:59.351Z,19.12
2018-02-10T17:48:28.864Z,20.27
2018-02-10T17:50:58.346Z,19.25
2018-02-10T17:53:27.860Z,19.42
2018-02-10T17:55:57.572Z,20.27
2018-02-10T17:58:27.107Z,19.40
2018-02-10T18:00:56.762Z,20.08
2018-02-10T18:03:26.274Z,20.92
2018-02-10T18:05:55.814Z,20.27
2018-02-10T18:08:25.280Z,19.52
2018-02-10T18:10:54.823Z,18.45
2018-02-10T18:13:24.565Z,20.45
2018-02-10T18:15:54.067Z,20.27
2018-02-10T18:18:23.530Z,21.45
2018-02-10T18:20:53.058Z,21.15
2018-02-10T18:23:22.542Z,20.65
2018-02-10T18:25:52.052Z,19.73
2018-02-10T18:28:21.541Z,20.80
2018-02-10T18:30:51.056Z,20.55
2018-02-10T18:33:20.560Z,20.70
2018-02-10T18:35:50.095Z,21.15
2018-02-10T18:38:19.589Z,21.15
2018-02-10T18:40:49.149Z,21.98
2018-02-10T18:43:18.637Z,20.65
2018-02-10T18:45:48.166Z,20.00
2018-02-10T18:48:17.686Z,22.20
2018-02-10T18:50:47.168Z,22.55
2018-02-10T18:53:16.711Z,18.90
2018-02-10T18:55:46.173Z,19.42
2018-02-10T18:58:15.688Z,18.83
2018-02-10T19:00:45.212Z,20.75
2018-02-10T19:03:14.727Z,20.45
2018-02-10T19:05:44.226Z,19.02
2018-02-10T19:08:13.736Z,19.48
2018-02-10T19:10:43.205Z,19.45
2018-02-10T19:13:12.736Z,19.15
2018-02-10T19:15:42.234Z,21.10
2018-02-10T19:18:11.775Z,18.55
2018-02-10T19:20:41.269Z,19.35
2018-02-10T19:23:10.770Z,19.05
2018-02-10T19:25:40.249Z,18.92
2018-02-10T19:28:09.725Z,22.15
2018-02-10T19:30:39.240Z,21.25
2018-02-10T19:33:08.735Z,19.83
2018-02-10T19:35:38.293Z,18.42
2018-02-10T19:38:07.780Z,18.58
2018-02-10T19:40:37.447Z,20.70
2018-02-10T19:43:06.941Z,17.92
2018-02-10T19:45:36.445Z,17.50
2018-02-10T19:48:05.993Z,19.27
2018-02-10T19:50:35.553Z,21.58
2018-02-10T19:53:05.027Z,19.98
2018-02-10T19:55:34.556Z,17.80
2018-02-10T19:58:04.095Z,18.58
2018-02-10T20:00:33.583Z,18.62
2018-02-10T20:03:03.194Z,17.67
2018-02-10T20:05:32.697Z,18.20
2018-02-10T20:08:02.230Z,17.33
2018-02-10T20:10:31.721Z,18.62
2018-02-10T20:13:01.254Z,15.95
2018-02-10T20:15:30.773Z,18.50
2018-02-10T20:18:00.311Z,18.23
2018-02-10T20:20:29.859Z,17.17
2018-02-10T20:22:59.342Z,17.55
2018-02-10T20:25:28.884Z,18.85
2018-02-10T20:27:58.381Z,16.58
2018-02-10T20:30:27.909Z,18.12
2018-02-10T20:32:57.407Z,18.60
2018-02-10T20:35:26.953Z,20.30
2018-02-10T20:37:56.474Z,18.37
2018-02-10T20:40:25.997Z,16.80
2018-02-10T20:42:55.481Z,17.15
2018-02-10T20:45:25.007Z,16.60
2018-02-10T20:47:54.558Z,18.55
2018-02-10T20:50:24.058Z,18.20
2018-02-10T20:52:53.608Z,16.25
2018-02-10T20:55:23.100Z,16.55
2018-02-10T20:57:52.647Z,16.25
2018-02-10T21:00:22.139Z,16.00
2018-02-10T21:02:51.681Z,14.32
2018-02-10T21:05:21.153Z,15.75
2018-02-10T21:07:50.688Z,17.15
2018-02-10T21:10:20.188Z,16.87
2018-02-10T21:12:49.720Z,16.05
2018-02-10T21:15:19.233Z,17.40
2018-02-10T21:17:48.765Z,17.20
2018-02-10T21:20:18.452Z,16.83
2018-02-10T21:22:48.206Z,15.90
2018-02-10T21:25:17.747Z,14.63
2018-02-10T21:27:47.213Z,13.85
2018-02-10T21:30:16.737Z,17.10
2018-02-10T21:32:46.240Z,16.73
2018-02-10T21:35:15.779Z,17.25
2018-02-10T21:37:45.263Z,16.90
2018-02-10T21:40:14.788Z,16.00
2018-02-10T21:42:44.288Z,16.45
2018-02-10T21:45:13.790Z,18.20
2018-02-10T21:47:43.337Z,17.37
2018-02-10T21:50:12.866Z,17.17
2018-02-10T21:52:42.379Z,16.00
2018-02-10T21:55:12.389Z,17.80
2018-02-10T21:57:41.837Z,18.05
2018-02-10T22:00:11.488Z,14.95
2018-02-10T22:02:41.040Z,16.12
2018-02-10T22:05:10.546Z,16.15
2018-02-10T22:07:40.828Z,17.35
2018-02-10T22:10:10.318Z,15.32
2018-02-10T22:12:39.808Z,15.65
2018-02-10T22:15:09.414Z,14.95
2018-02-10T22:17:38.925Z,13.95
2018-02-10T22:20:08.447Z,14.87
2018-02-10T22:22:37.941Z,15.88
2018-02-10T22:25:07.477Z,15.40
2018-02-10T22:27:37.134Z,17.00
2018-02-10T22:30:06.646Z,15.57
2018-02-10T22:32:36.114Z,16.42
2018-02-10T22:35:05.626Z,15.07
2018-02-10T22:37:35.179Z,15.40
2018-02-10T22:40:04.699Z,16.75
2018-02-10T22:42:34.187Z,17.25
2018-02-10T22:45:03.766Z,14.95
2018-02-10T22:47:33.317Z,17.20
2018-02-10T22:50:02.842Z,16.58
2018-02-10T22:52:32.297Z,16.20
2018-02-10T22:55:01.832Z,15.88
2018-02-10T22:57:31.344Z,15.23
2018-02-10T23:00:00.849Z,14.80
2018-02-10T23:02:30.356Z,16.48
2018-02-10T23:04:59.882Z,14.60
2018-02-10T23:07:29.352Z,16.15
2018-02-10T23:09:58.876Z,14.95
2018-02-10T23:12:28.339Z,16.60
2018-02-10T23:14:57.867Z,15.63
2018-02-10T23:17:27.368Z,15.10
2018-02-10T23:19:56.854Z,15.40
2018-02-10T23:22:26.378Z,15.70
2018-02-10T23:24:55.891Z,14.50
2018-02-10T23:27:25.434Z,17.83
2018-02-10T23:29:54.913Z,15.32
2018-02-10T23:32:24.433Z,15.18
2018-02-10T23:34:53.934Z,14.85
2018-02-10T23:37:23.445Z,13.82
2018-02-10T23:39:52.907Z,15.07
2018-02-10T23:42:22.457Z,13.88
2018-02-10T23:44:51.972Z,13.35
2018-02-10T23:47:21.480Z,14.05
2018-02-10T23:49:51.027Z,13.25
2018-02-10T23:52:20.567Z,13.80
2018-02-10T23:54:50.107Z,12.52
2018-02-10T23:57:19.586Z,13.02
2018-02-10T23:59:49.098Z,12.18
